createdAt,value
2023-05-25T00:01:03.142Z,98.83
2023-05-25T00:03:32.176Z,96.93
2023-05-25T00:06:01.633Z,96.52
2023-05-25T00:08:29.595Z,95.83
2023-05-25T00:10:56.401Z,94.96
2023-05-25T00:13:23.304Z,94.57
2023-05-25T00:15:50.591Z,94.50
2023-05-25T00:18:18.398Z,94.57
2023-05-25T00:20:45.880Z,92.65
2023-05-25T00:23:12.685Z,91.90
2023-05-25T00:25:39.347Z,92.39
2023-05-25T00:28:06.385Z,91.20
2023-05-25T00:30:33.072Z,92.35
2023-05-25T00:33:01.567Z,91.46
2023-05-25T00:35:28.823Z,91.28
2023-05-25T00:37:55.546Z,90.48
2023-05-25T00:40:22.510Z,90.04
2023-05-25T00:42:49.241Z,89.45
2023-05-25T00:45:16.179Z,88.97
2023-05-25T00:47:44.319Z,90.11
2023-05-25T00:50:15.051Z,89.15
2023-05-25T00:52:41.794Z,88.22
2023-05-25T00:55:11.678Z,88.27
2023-05-25T00:57:41.546Z,87.76
2023-05-25T01:00:11.559Z,87.63
2023-05-25T01:02:41.341Z,87.00
2023-05-25T01:05:10.730Z,86.46
2023-05-25T01:07:39.305Z,86.44
2023-05-25T01:10:07.051Z,87.04
2023-05-25T01:12:45.414Z,86.72
2023-05-25T01:15:12.613Z,86.88
2023-05-25T01:17:39.384Z,86.99
2023-05-25T01:20:11.838Z,86.82
2023-05-25T01:22:47.866Z,87.30
2023-05-25T01:25:25.276Z,87.77
2023-05-25T01:27:58.950Z,87.48
2023-05-25T01:30:27.230Z,87.54
2023-05-25T01:32:55.279Z,88.02
2023-05-25T01:35:23.277Z,88.33
2023-05-25T01:37:52.245Z,88.12
2023-05-25T01:40:18.949Z,88.71
2023-05-25T01:42:45.978Z,88.78
2023-05-25T01:45:14.723Z,90.38
2023-05-25T01:47:49.344Z,94.29
2023-05-25T01:50:26.796Z,92.82
2023-05-25T01:53:02.578Z,93.03
2023-05-25T01:55:32.745Z,90.97
2023-05-25T01:58:00.929Z,90.45
2023-05-25T02:00:33.514Z,89.80
2023-05-25T02:03:01.784Z,87.74
2023-05-25T02:05:28.576Z,88.69
2023-05-25T02:07:55.481Z,87.92
2023-05-25T02:10:22.159Z,88.94
2023-05-25T02:12:48.817Z,88.62
2023-05-25T02:15:16.131Z,88.79
2023-05-25T02:17:43.319Z,89.25
2023-05-25T02:20:11.964Z,89.40
2023-05-25T02:22:38.705Z,89.27
2023-05-25T02:25:05.855Z,90.64
2023-05-25T02:27:32.542Z,89.60
2023-05-25T02:29:59.166Z,90.63
2023-05-25T02:32:25.835Z,90.56
2023-05-25T02:34:52.488Z,91.35
2023-05-25T02:37:19.165Z,90.92
2023-05-25T02:39:45.870Z,91.35
2023-05-25T02:42:12.569Z,91.63
2023-05-25T02:44:39.262Z,91.50
2023-05-25T02:47:06.861Z,91.11
2023-05-25T02:49:34.423Z,92.04
2023-05-25T02:52:01.035Z,92.47
2023-05-25T02:54:27.705Z,92.31
2023-05-25T02:56:54.461Z,92.66
2023-05-25T02:59:21.620Z,93.35
2023-05-25T03:01:48.262Z,93.13
2023-05-25T03:04:15.107Z,95.42
2023-05-25T03:06:41.952Z,95.05
2023-05-25T03:09:09.632Z,96.53
2023-05-25T03:11:36.472Z,96.67
2023-05-25T03:14:03.172Z,97.90
2023-05-25T03:16:29.922Z,98.86
2023-05-25T03:18:56.666Z,99.15
2023-05-25T03:21:23.693Z,100.00
2023-05-25T03:23:50.331Z,100.00
2023-05-25T03:26:17.587Z,100.00
2023-05-25T03:28:44.256Z,100.00
2023-05-25T03:31:12.200Z,100.00
2023-05-25T03:33:38.899Z,100.00
2023-05-25T03:36:09.533Z,100.00
2023-05-25T03:38:39.461Z,100.00
2023-05-25T03:41:06.155Z,100.00
2023-05-25T03:43:32.840Z,100.00
2023-05-25T03:45:59.553Z,100.00
2023-05-25T03:48:26.465Z,100.00
2023-05-25T03:50:54.085Z,100.00
2023-05-25T03:53:20.770Z,100.00
2023-05-25T03:55:47.707Z,100.00
2023-05-25T03:58:16.026Z,100.00
2023-05-25T04:00:42.669Z,100.00
2023-05-25T04:03:10.885Z,100.00
2023-05-25T04:05:38.628Z,100.00
2023-05-25T04:08:06.907Z,100.00
2023-05-25T04:10:33.769Z,100.00
2023-05-25T04:13:01.961Z,100.00
2023-05-25T04:15:28.745Z,100.00
2023-05-25T04:17:55.492Z,100.00
2023-05-25T04:20:22.286Z,100.00
2023-05-25T04:22:49.974Z,100.00
2023-05-25T04:25:17.074Z,100.00
2023-05-25T04:27:46.688Z,100.00
2023-05-25T04:30:13.532Z,100.00
2023-05-25T04:32:41.038Z,100.00
2023-05-25T04:35:08.508Z,100.00
2023-05-25T04:37:37.056Z,100.00
2023-05-25T04:40:08.776Z,100.00
2023-05-25T04:42:35.470Z,100.00
2023-05-25T04:45:02.240Z,100.00
2023-05-25T04:47:29.353Z,100.00
2023-05-25T04:49:56.105Z,100.00
2023-05-25T04:52:22.829Z,100.00
2023-05-25T04:54:49.569Z,100.00
2023-05-25T04:57:16.212Z,100.00
2023-05-25T04:59:43.064Z,100.00
2023-05-25T05:02:09.709Z,100.00
2023-05-25T05:04:37.297Z,100.00
2023-05-25T05:07:04.194Z,100.00
2023-05-25T05:09:30.849Z,100.00
2023-05-25T05:11:57.741Z,100.00
2023-05-25T05:14:24.483Z,100.00
2023-05-25T05:16:51.539Z,100.00
2023-05-25T05:19:18.317Z,100.00
2023-05-25T05:21:44.992Z,100.00
2023-05-25T05:24:11.734Z,100.00
2023-05-25T05:26:56.293Z,100.00
2023-05-25T05:29:26.823Z,100.00
2023-05-25T05:31:54.781Z,85.38
2023-05-25T05:34:21.901Z,75.47
2023-05-25T05:36:57.283Z,84.71
2023-05-25T05:39:25.232Z,86.15
2023-05-25T05:41:52.019Z,85.58
2023-05-25T05:44:21.147Z,73.92
2023-05-25T05:46:48.118Z,66.62
2023-05-25T05:49:15.011Z,63.42
2023-05-25T05:51:41.768Z,59.85
2023-05-25T05:54:08.517Z,54.90
2023-05-25T05:56:35.461Z,52.70
2023-05-25T05:59:02.149Z,52.04
2023-05-25T06:01:28.849Z,49.66
2023-05-25T06:03:56.091Z,52.17
2023-05-25T06:06:22.949Z,56.51
2023-05-25T06:08:49.715Z,49.67
2023-05-25T06:11:16.487Z,51.00
2023-05-25T06:13:44.246Z,54.37
2023-05-25T06:16:12.543Z,63.53
2023-05-25T06:18:39.675Z,71.54
2023-05-25T06:21:06.489Z,69.85
2023-05-25T06:23:33.228Z,80.41
2023-05-25T06:26:06.755Z,84.18
2023-05-25T06:28:33.539Z,89.67
2023-05-25T06:31:00.401Z,93.94
2023-05-25T06:33:27.282Z,97.73
2023-05-25T06:35:58.282Z,94.14
2023-05-25T06:38:25.154Z,92.21
2023-05-25T06:40:51.786Z,96.52
2023-05-25T06:43:18.630Z,94.02
2023-05-25T06:45:45.644Z,96.13
2023-05-25T06:48:12.920Z,99.73
2023-05-25T06:50:40.122Z,100.00
2023-05-25T06:53:06.860Z,100.00
2023-05-25T06:55:33.592Z,100.00
2023-05-25T06:58:00.242Z,100.00
2023-05-25T07:00:27.055Z,100.00
2023-05-25T07:02:53.959Z,100.00
2023-05-25T07:05:20.922Z,100.00
2023-05-25T07:07:47.708Z,100.00
2023-05-25T07:10:14.380Z,100.00
2023-05-25T07:12:41.052Z,100.00
2023-05-25T07:15:08.384Z,100.00
2023-05-25T07:17:36.472Z,100.00
2023-05-25T07:20:05.113Z,100.00
2023-05-25T07:22:31.866Z,100.00
2023-05-25T07:24:58.570Z,100.00
2023-05-25T07:27:25.551Z,100.00
2023-05-25T07:29:52.258Z,100.00
2023-05-25T07:32:18.905Z,100.00
2023-05-25T07:34:45.797Z,100.00
2023-05-25T07:37:12.518Z,100.00
2023-05-25T07:39:40.544Z,100.00
2023-05-25T07:42:07.412Z,100.00
2023-05-25T07:44:34.582Z,100.00
2023-05-25T07:47:01.446Z,100.00
2023-05-25T07:49:28.269Z,100.00
2023-05-25T07:51:54.963Z,100.00
2023-05-25T07:54:21.652Z,100.00
2023-05-25T07:56:48.442Z,100.00
2023-05-25T07:59:15.175Z,100.00
2023-05-25T08:01:41.874Z,100.00
2023-05-25T08:04:08.734Z,100.00
2023-05-25T08:06:35.683Z,100.00
2023-05-25T08:09:04.819Z,100.00
2023-05-25T08:11:31.642Z,100.00
2023-05-25T08:14:00.033Z,100.00
2023-05-25T08:16:26.882Z,100.00
2023-05-25T08:18:53.587Z,100.00
2023-05-25T08:21:20.468Z,100.00
2023-05-25T08:23:47.251Z,100.00
2023-05-25T08:26:34.079Z,100.00
2023-05-25T08:29:01.641Z,100.00
2023-05-25T08:31:28.546Z,100.00
2023-05-25T08:33:55.252Z,100.00
2023-05-25T08:36:22.206Z,100.00
2023-05-25T08:38:48.851Z,100.00
2023-05-25T08:41:16.687Z,100.00
2023-05-25T08:43:43.714Z,100.00
2023-05-25T08:46:10.525Z,100.00
2023-05-25T08:48:42.403Z,100.00
2023-05-25T08:51:13.460Z,100.00
2023-05-25T08:53:41.527Z,100.00
2023-05-25T08:56:20.148Z,100.00
2023-05-25T08:59:04.861Z,100.00
2023-05-25T09:01:39.198Z,100.00
2023-05-25T09:04:06.777Z,100.00
2023-05-25T09:06:36.693Z,100.00
2023-05-25T09:09:06.627Z,100.00
2023-05-25T09:11:39.268Z,100.00
2023-05-25T09:14:11.431Z,100.00
2023-05-25T09:16:38.421Z,100.00
2023-05-25T09:19:05.190Z,100.00
2023-05-25T09:21:32.071Z,100.00
2023-05-25T09:24:00.345Z,100.00
2023-05-25T09:26:27.563Z,100.00
2023-05-25T09:28:54.386Z,100.00
2023-05-25T09:31:23.912Z,100.00
2023-05-25T09:33:51.506Z,100.00
2023-05-25T09:36:21.057Z,100.00
2023-05-25T09:38:48.100Z,100.00
2023-05-25T09:41:14.986Z,100.00
2023-05-25T09:43:48.953Z,100.00
2023-05-25T09:46:21.494Z,100.00
2023-05-25T09:48:48.678Z,99.96
2023-05-25T09:51:15.585Z,95.38
2023-05-25T09:53:42.729Z,99.44
2023-05-25T09:56:11.762Z,97.44
2023-05-25T09:58:38.566Z,100.00
2023-05-25T10:01:05.405Z,92.89
2023-05-25T10:03:33.209Z,93.23
2023-05-25T10:06:01.382Z,84.80
2023-05-25T10:08:29.282Z,75.17
2023-05-25T10:10:56.109Z,69.15
2023-05-25T10:13:25.574Z,78.37
2023-05-25T10:15:54.599Z,73.12
2023-05-25T10:18:28.088Z,71.75
2023-05-25T10:21:03.153Z,63.86
2023-05-25T10:23:40.273Z,64.79
2023-05-25T10:26:09.236Z,67.87
2023-05-25T10:28:37.340Z,63.89
2023-05-25T10:31:05.433Z,71.74
2023-05-25T10:33:33.538Z,72.88
2023-05-25T10:38:37.407Z,81.02
2023-05-25T10:41:05.760Z,79.86
2023-05-25T10:43:32.661Z,76.73
2023-05-25T10:45:59.695Z,77.35
2023-05-25T10:48:37.151Z,78.71
2023-05-25T10:51:04.467Z,75.21
2023-05-25T10:53:31.235Z,80.32
2023-05-25T10:56:05.796Z,77.87
2023-05-25T10:58:33.444Z,77.58
2023-05-25T11:01:07.559Z,79.32
2023-05-25T11:03:53.227Z,79.03
2023-05-25T11:06:46.405Z,74.97
2023-05-25T11:09:27.070Z,73.27
2023-05-25T11:11:55.560Z,78.48
2023-05-25T11:14:32.418Z,78.78
2023-05-25T11:17:15.680Z,79.18
2023-05-25T11:19:43.897Z,77.47
2023-05-25T11:22:19.159Z,79.54
2023-05-25T11:24:50.058Z,78.61
2023-05-25T11:27:23.771Z,79.44
2023-05-25T11:29:51.423Z,85.16
2023-05-25T11:32:18.368Z,87.44
2023-05-25T11:34:47.061Z,87.37
2023-05-25T11:37:21.245Z,81.89
2023-05-25T11:39:49.682Z,79.33
2023-05-25T11:42:17.388Z,75.14
2023-05-25T11:44:44.367Z,76.25
2023-05-25T11:47:14.700Z,83.06
2023-05-25T11:49:44.130Z,88.58
2023-05-25T11:52:13.145Z,85.90
2023-05-25T11:54:43.619Z,85.05
2023-05-25T11:57:18.799Z,82.74
2023-05-25T11:59:57.332Z,86.75
2023-05-25T12:02:24.584Z,86.26
2023-05-25T12:05:03.980Z,86.33
2023-05-25T12:07:34.609Z,86.96
2023-05-25T12:10:18.341Z,84.09
2023-05-25T12:12:49.316Z,84.61
2023-05-25T12:15:20.725Z,85.06
2023-05-25T12:17:48.558Z,81.21
2023-05-25T12:20:17.006Z,77.74
2023-05-25T12:22:45.690Z,77.93
2023-05-25T12:25:13.786Z,78.06
2023-05-25T12:27:40.717Z,79.02
2023-05-25T12:30:09.444Z,81.84
2023-05-25T12:33:03.904Z,79.62
2023-05-25T12:35:45.422Z,76.81
2023-05-25T12:38:17.860Z,81.05
2023-05-25T12:40:45.150Z,86.90
2023-05-25T12:43:13.211Z,84.84
2023-05-25T12:45:43.671Z,82.23
2023-05-25T12:48:11.100Z,81.97
2023-05-25T12:50:37.935Z,79.34
2023-05-25T12:53:04.903Z,87.27
2023-05-25T12:55:33.504Z,85.73
2023-05-25T12:58:02.218Z,84.56
2023-05-25T13:00:36.336Z,82.02
2023-05-25T13:03:04.693Z,77.42
2023-05-25T13:05:34.208Z,76.30
2023-05-25T13:08:02.006Z,76.51
2023-05-25T13:10:32.892Z,73.57
2023-05-25T13:13:00.164Z,77.98
2023-05-25T13:15:27.262Z,82.12
2023-05-25T13:17:55.021Z,79.64
2023-05-25T13:20:25.017Z,77.96
2023-05-25T13:22:53.689Z,74.61
2023-05-25T13:25:22.114Z,72.58
2023-05-25T13:27:51.803Z,72.12
2023-05-25T13:30:20.783Z,73.40
2023-05-25T13:32:49.550Z,80.29
2023-05-25T13:35:37.631Z,79.11
2023-05-25T13:38:05.020Z,76.36
2023-05-25T13:40:31.785Z,81.60
2023-05-25T13:42:58.601Z,86.39
2023-05-25T13:45:25.297Z,85.56
2023-05-25T13:47:52.060Z,88.36
2023-05-25T13:50:18.940Z,87.00
2023-05-25T13:52:45.624Z,82.11
2023-05-25T13:55:12.466Z,80.85
2023-05-25T13:57:39.125Z,78.64
2023-05-25T14:00:07.642Z,75.96
2023-05-25T14:02:35.187Z,78.13
2023-05-25T14:05:02.170Z,82.44
2023-05-25T14:07:28.826Z,84.20
2023-05-25T14:09:57.066Z,81.60
2023-05-25T14:12:24.867Z,80.85
2023-05-25T14:14:51.579Z,79.23
2023-05-25T14:17:18.279Z,77.66
2023-05-25T14:19:44.975Z,81.49
2023-05-25T14:22:14.385Z,79.95
2023-05-25T14:24:42.324Z,84.04
2023-05-25T14:27:09.368Z,86.82
2023-05-25T14:29:36.255Z,84.99
2023-05-25T14:32:03.133Z,84.06
2023-05-25T14:34:29.923Z,85.51
2023-05-25T14:36:56.729Z,82.71
2023-05-25T14:39:23.640Z,82.39
2023-05-25T14:41:50.572Z,84.00
2023-05-25T14:44:17.277Z,83.68
2023-05-25T14:46:43.933Z,82.54
2023-05-25T14:49:10.748Z,80.71
2023-05-25T14:51:38.122Z,80.13
2023-05-25T14:54:07.172Z,76.23
2023-05-25T14:56:34.243Z,75.60
2023-05-25T14:59:00.983Z,76.40
2023-05-25T15:01:29.383Z,80.52
2023-05-25T15:03:56.739Z,85.40
2023-05-25T15:06:23.650Z,85.74
2023-05-25T15:08:50.879Z,85.33
2023-05-25T15:11:18.145Z,84.74
2023-05-25T15:13:45.044Z,82.88
2023-05-25T15:16:16.065Z,80.39
2023-05-25T15:18:43.590Z,78.06
2023-05-25T15:21:10.738Z,77.08
2023-05-25T15:23:37.456Z,81.62
2023-05-25T15:26:04.810Z,79.81
2023-05-25T15:28:31.877Z,78.03
2023-05-25T15:31:01.624Z,77.86
2023-05-25T15:33:43.512Z,82.49
2023-05-25T15:36:15.067Z,79.50
2023-05-25T15:38:43.348Z,79.30
2023-05-25T15:41:11.444Z,76.22
2023-05-25T15:43:38.236Z,76.35
2023-05-25T15:46:04.985Z,76.67
2023-05-25T15:48:31.753Z,77.18
2023-05-25T15:50:58.536Z,76.20
2023-05-25T15:53:25.219Z,76.97
2023-05-25T15:55:51.935Z,78.49
2023-05-25T15:58:18.693Z,82.40
2023-05-25T16:00:45.422Z,81.67
2023-05-25T16:03:12.217Z,81.99
2023-05-25T16:05:39.031Z,80.60
2023-05-25T16:08:05.766Z,84.13
2023-05-25T16:10:32.548Z,83.79
2023-05-25T16:12:59.207Z,82.16
2023-05-25T16:15:26.113Z,82.39
2023-05-25T16:17:52.819Z,81.44
2023-05-25T16:20:19.590Z,83.12
2023-05-25T16:22:46.454Z,84.38
2023-05-25T16:25:13.254Z,82.07
2023-05-25T16:27:40.073Z,80.36
2023-05-25T16:30:07.430Z,79.26
2023-05-25T16:32:34.159Z,77.89
2023-05-25T16:35:01.657Z,76.36
2023-05-25T16:37:28.445Z,75.15
2023-05-25T16:39:55.210Z,74.65
2023-05-25T16:42:24.922Z,74.78
2023-05-25T16:44:51.965Z,77.41
2023-05-25T16:47:19.461Z,77.61
2023-05-25T16:49:46.195Z,78.30
2023-05-25T16:52:12.869Z,79.47
2023-05-25T16:54:39.600Z,79.11
2023-05-25T16:57:06.956Z,80.34
2023-05-25T16:59:33.672Z,81.06
2023-05-25T17:02:00.776Z,84.63
2023-05-25T17:04:27.538Z,83.11
2023-05-25T17:06:54.285Z,84.34
2023-05-25T17:09:21.160Z,83.03
2023-05-25T17:11:47.907Z,81.23
2023-05-25T17:14:14.606Z,80.28
2023-05-25T17:16:41.413Z,79.17
2023-05-25T17:19:08.320Z,80.69
2023-05-25T17:21:35.047Z,80.63
2023-05-25T17:24:01.737Z,81.13
2023-05-25T17:26:28.523Z,82.62
2023-05-25T17:28:56.522Z,80.59
2023-05-25T17:31:23.211Z,82.20
2023-05-25T17:33:50.002Z,83.76
2023-05-25T17:36:16.742Z,85.78
2023-05-25T17:38:43.606Z,85.08
2023-05-25T17:41:10.513Z,86.75
2023-05-25T17:43:37.218Z,87.58
2023-05-25T17:46:04.121Z,86.58
2023-05-25T17:48:30.969Z,88.34
2023-05-25T17:50:57.891Z,86.02
2023-05-25T17:53:24.709Z,87.15
2023-05-25T17:55:51.537Z,87.23
2023-05-25T17:58:18.321Z,87.65
2023-05-25T18:00:45.034Z,88.49
2023-05-25T18:03:11.871Z,89.24
2023-05-25T18:05:38.713Z,88.99
2023-05-25T18:08:05.428Z,89.55
2023-05-25T18:10:32.141Z,89.75
2023-05-25T18:13:01.134Z,90.47
2023-05-25T18:15:27.931Z,90.98
2023-05-25T18:17:54.675Z,91.64
2023-05-25T18:20:21.478Z,92.03
2023-05-25T18:22:48.194Z,92.55
2023-05-25T18:25:14.984Z,93.55
2023-05-25T18:27:41.672Z,93.12
2023-05-25T18:30:08.956Z,93.20
2023-05-25T18:32:35.759Z,94.02
2023-05-25T18:35:02.536Z,94.69
2023-05-25T18:37:31.187Z,94.57
2023-05-25T18:39:57.840Z,94.75
2023-05-25T18:42:24.592Z,95.08
2023-05-25T18:44:51.244Z,95.93
2023-05-25T18:47:18.496Z,96.08
2023-05-25T18:49:45.451Z,96.00
2023-05-25T18:52:12.173Z,96.32
2023-05-25T18:54:39.598Z,97.64
2023-05-25T18:57:07.104Z,98.12
2023-05-25T18:59:33.937Z,99.01
2023-05-25T19:02:01.480Z,99.92
2023-05-25T19:04:28.283Z,100.00
2023-05-25T19:06:55.077Z,100.00
2023-05-25T19:09:21.768Z,100.00
2023-05-25T19:11:48.441Z,100.00
2023-05-25T19:14:15.310Z,100.00
2023-05-25T19:16:42.133Z,100.00
2023-05-25T19:19:08.900Z,100.00
2023-05-25T19:21:36.530Z,100.00
2023-05-25T19:24:03.480Z,100.00
2023-05-25T19:26:30.400Z,100.00
2023-05-25T19:28:57.523Z,100.00
2023-05-25T19:31:24.301Z,100.00
2023-05-25T19:33:51.177Z,100.00
2023-05-25T19:36:17.959Z,100.00
2023-05-25T19:38:44.739Z,100.00
2023-05-25T19:41:11.495Z,100.00
2023-05-25T19:43:38.406Z,100.00
2023-05-25T19:46:05.379Z,100.00
2023-05-25T19:48:32.351Z,100.00
2023-05-25T19:51:00.945Z,100.00
2023-05-25T19:53:28.840Z,100.00
2023-05-25T19:55:55.644Z,100.00
2023-05-25T19:58:22.432Z,100.00
2023-05-25T20:00:49.132Z,100.00
2023-05-25T20:03:17.691Z,100.00
2023-05-25T20:05:44.729Z,100.00
2023-05-25T20:08:11.614Z,100.00
2023-05-25T20:10:39.658Z,100.00
2023-05-25T20:13:07.512Z,100.00
2023-05-25T20:15:34.861Z,100.00
2023-05-25T20:18:02.656Z,100.00
2023-05-25T20:20:29.498Z,100.00
2023-05-25T20:22:56.560Z,100.00
2023-05-25T20:25:23.292Z,100.00
2023-05-25T20:27:50.014Z,100.00
2023-05-25T20:30:17.270Z,100.00
2023-05-25T20:32:44.058Z,100.00
2023-05-25T20:35:10.837Z,100.00
2023-05-25T20:37:37.553Z,100.00
2023-05-25T20:40:06.586Z,100.00
2023-05-25T20:42:33.380Z,100.00
2023-05-25T20:45:00.159Z,100.00
2023-05-25T20:47:27.164Z,100.00
2023-05-25T20:49:53.868Z,100.00
2023-05-25T20:52:21.149Z,100.00
2023-05-25T20:54:48.247Z,100.00
2023-05-25T20:57:15.106Z,100.00
2023-05-25T20:59:41.798Z,100.00
2023-05-25T21:02:08.600Z,100.00
2023-05-25T21:04:35.780Z,100.00
2023-05-25T21:07:02.572Z,100.00
2023-05-25T21:09:29.247Z,100.00
2023-05-25T21:11:55.887Z,100.00
2023-05-25T21:14:22.630Z,100.00
2023-05-25T21:16:50.100Z,100.00
2023-05-25T21:19:17.267Z,100.00
2023-05-25T21:21:44.095Z,100.00
2023-05-25T21:24:10.927Z,100.00
2023-05-25T21:26:37.666Z,100.00
2023-05-25T21:29:04.472Z,100.00
2023-05-25T21:31:31.360Z,100.00
2023-05-25T21:34:00.012Z,100.00
2023-05-25T21:36:27.023Z,100.00
2023-05-25T21:38:53.790Z,100.00
2023-05-25T21:41:20.578Z,100.00
2023-05-25T21:43:47.338Z,100.00
2023-05-25T21:46:14.070Z,100.00
2023-05-25T21:48:40.796Z,100.00
2023-05-25T21:51:07.522Z,100.00
2023-05-25T21:53:34.259Z,100.00
2023-05-25T21:56:00.923Z,100.00
2023-05-25T21:58:27.721Z,100.00
2023-05-25T22:00:54.443Z,100.00
2023-05-25T22:03:21.305Z,100.00
2023-05-25T22:05:48.124Z,100.00
2023-05-25T22:08:14.853Z,100.00
2023-05-25T22:10:41.536Z,100.00
2023-05-25T22:13:08.335Z,100.00
2023-05-25T22:15:35.271Z,100.00
2023-05-25T22:18:02.077Z,100.00
2023-05-25T22:20:28.812Z,100.00
2023-05-25T22:22:55.537Z,100.00
2023-05-25T22:25:22.351Z,100.00
2023-05-25T22:27:49.041Z,100.00
2023-05-25T22:30:15.869Z,100.00
2023-05-25T22:32:42.621Z,100.00
2023-05-25T22:35:09.454Z,100.00
2023-05-25T22:37:36.129Z,100.00
2023-05-25T22:40:05.828Z,100.00
2023-05-25T22:42:32.525Z,100.00
2023-05-25T22:44:59.348Z,100.00
2023-05-25T22:47:26.034Z,100.00
2023-05-25T22:49:52.668Z,100.00
2023-05-25T22:52:19.620Z,100.00
2023-05-25T22:54:46.345Z,100.00
2023-05-25T22:57:13.017Z,100.00
2023-05-25T22:59:39.777Z,100.00
2023-05-25T23:02:07.437Z,100.00
2023-05-25T23:04:36.295Z,100.00
2023-05-25T23:07:03.018Z,100.00
2023-05-25T23:09:29.674Z,100.00
2023-05-25T23:11:56.424Z,100.00
2023-05-25T23:14:23.128Z,100.00
2023-05-25T23:16:49.809Z,100.00
2023-05-25T23:19:17.042Z,100.00
2023-05-25T23:21:44.252Z,100.00
2023-05-25T23:24:10.945Z,100.00
2023-05-25T23:26:37.600Z,100.00
2023-05-25T23:29:04.410Z,100.00
2023-05-25T23:31:31.427Z,100.00
2023-05-25T23:33:58.227Z,100.00
2023-05-25T23:36:26.244Z,100.00
2023-05-25T23:38:53.021Z,100.00
2023-05-25T23:41:20.099Z,100.00
2023-05-25T23:43:46.842Z,100.00
2023-05-25T23:46:17.357Z,100.00
2023-05-25T23:48:45.682Z,100.00
2023-05-25T23:51:12.436Z,100.00
2023-05-25T23:53:39.174Z,100.00
2023-05-25T23:56:06.057Z,100.00
2023-05-25T23:58:32.782Z,100.00
